createdAt,value
2018-10-17T00:01:15.158Z,13.30
2018-10-17T00:03:50.863Z,13.30
2018-10-17T00:06:26.485Z,13.30
2018-10-17T00:09:02.164Z,13.40
2018-10-17T00:11:37.571Z,13.30
2018-10-17T00:14:12.965Z,13.30
2018-10-17T00:16:48.360Z,13.20
2018-10-17T00:19:23.933Z,13.20
2018-10-17T00:21:59.850Z,13.20
2018-10-17T00:24:35.389Z,13.10
2018-10-17T00:27:10.825Z,13.10
2018-10-17T00:29:46.583Z,13.00
2018-10-17T00:32:28.600Z,13.00
2018-10-17T00:35:04.014Z,12.90
2018-10-17T00:37:39.310Z,12.90
2018-10-17T00:40:14.738Z,12.90
2018-10-17T00:42:50.165Z,12.80
2018-10-17T00:45:25.556Z,12.80
2018-10-17T00:48:00.974Z,12.80
2018-10-17T00:50:36.341Z,12.70
2018-10-17T00:53:11.739Z,12.60
2018-10-17T00:55:47.198Z,12.60
2018-10-17T00:58:22.708Z,12.60
2018-10-17T01:00:58.326Z,12.60
2018-10-17T01:03:33.923Z,12.50
2018-10-17T01:06:09.392Z,12.50
2018-10-17T01:08:44.771Z,12.50
2018-10-17T01:11:20.284Z,12.50
2018-10-17T01:13:55.770Z,12.50
2018-10-17T01:16:31.144Z,12.40
2018-10-17T01:19:07.067Z,12.30
2018-10-17T01:21:42.321Z,12.30
2018-10-17T01:24:17.665Z,12.20
2018-10-17T01:26:53.178Z,12.20
2018-10-17T01:29:28.581Z,12.30
2018-10-17T01:32:04.001Z,12.30
2018-10-17T01:34:39.473Z,12.30
2018-10-17T01:37:14.957Z,12.30
2018-10-17T01:39:50.551Z,12.20
2018-10-17T01:42:26.183Z,12.20
2018-10-17T01:45:01.851Z,12.20
2018-10-17T01:47:37.315Z,12.10
2018-10-17T01:50:13.046Z,12.10
2018-10-17T01:52:48.704Z,12.10
2018-10-17T01:55:24.031Z,12.10
2018-10-17T01:57:59.393Z,12.00
2018-10-17T02:00:34.680Z,11.90
2018-10-17T02:03:10.233Z,11.90
2018-10-17T02:05:45.723Z,11.80
2018-10-17T02:08:21.225Z,11.80
2018-10-17T02:10:56.713Z,11.80
2018-10-17T02:13:32.231Z,11.80
2018-10-17T02:16:07.881Z,11.80
2018-10-17T02:18:43.521Z,12.00
2018-10-17T02:21:19.000Z,12.00
2018-10-17T02:23:54.290Z,12.10
2018-10-17T02:26:29.684Z,12.20
2018-10-17T02:29:05.661Z,12.20
2018-10-17T02:31:40.856Z,12.20
2018-10-17T02:34:16.191Z,12.30
2018-10-17T02:36:51.458Z,12.40
2018-10-17T02:39:26.802Z,12.60
2018-10-17T02:42:02.231Z,12.70
2018-10-17T02:44:37.503Z,12.90
2018-10-17T02:47:12.835Z,13.00
2018-10-17T02:49:48.126Z,13.00
2018-10-17T02:52:23.824Z,13.00
2018-10-17T02:54:59.386Z,12.90
2018-10-17T02:57:34.734Z,12.90
2018-10-17T03:00:10.624Z,12.90
2018-10-17T03:02:46.025Z,12.80
2018-10-17T03:05:21.434Z,12.90
2018-10-17T03:07:56.994Z,12.70
2018-10-17T03:10:32.423Z,12.70
2018-10-17T03:13:07.824Z,12.70
2018-10-17T03:15:43.161Z,12.70
2018-10-17T03:18:18.621Z,12.70
2018-10-17T03:20:54.103Z,12.70
2018-10-17T03:23:29.537Z,12.70
2018-10-17T03:26:04.986Z,12.80
2018-10-17T03:28:40.251Z,12.80
2018-10-17T03:31:15.739Z,12.90
2018-10-17T03:33:51.076Z,12.90
2018-10-17T03:36:26.507Z,12.90
2018-10-17T03:39:01.916Z,13.00
2018-10-17T03:41:37.324Z,13.00
2018-10-17T03:44:12.904Z,12.90
2018-10-17T03:46:48.423Z,13.00
2018-10-17T03:49:24.061Z,13.10
2018-10-17T03:51:59.475Z,13.10
2018-10-17T03:54:34.914Z,13.20
2018-10-17T03:57:10.595Z,13.30
2018-10-17T03:59:46.127Z,13.40
2018-10-17T04:02:21.603Z,13.30
2018-10-17T04:04:56.984Z,13.40
2018-10-17T04:07:32.162Z,13.40
2018-10-17T04:10:07.612Z,13.30
2018-10-17T04:12:42.945Z,13.30
2018-10-17T04:15:18.201Z,13.30
2018-10-17T04:17:53.721Z,13.30
2018-10-17T04:20:29.311Z,13.20
2018-10-17T04:23:04.951Z,13.20
2018-10-17T04:25:40.292Z,13.20
2018-10-17T04:28:15.737Z,13.10
2018-10-17T04:30:51.044Z,13.10
2018-10-17T04:33:26.459Z,13.00
2018-10-17T04:36:01.883Z,13.00
2018-10-17T04:38:37.205Z,13.00
2018-10-17T04:41:12.889Z,12.90
2018-10-17T04:43:48.201Z,12.80
2018-10-17T04:46:23.614Z,12.80
2018-10-17T04:48:58.987Z,12.80
2018-10-17T04:51:34.551Z,12.80
2018-10-17T04:54:09.963Z,12.80
2018-10-17T04:56:45.371Z,12.70
2018-10-17T04:59:20.731Z,12.70
2018-10-17T05:01:56.189Z,12.70
2018-10-17T05:04:31.644Z,12.60
2018-10-17T05:07:07.187Z,12.60
2018-10-17T05:09:42.524Z,12.60
2018-10-17T05:12:17.884Z,12.60
2018-10-17T05:14:53.220Z,12.60
2018-10-17T05:17:28.502Z,12.60
2018-10-17T05:20:03.947Z,12.60
2018-10-17T05:22:39.477Z,12.70
2018-10-17T05:25:14.902Z,12.70
2018-10-17T05:27:50.402Z,12.80
2018-10-17T05:30:25.731Z,12.80
2018-10-17T05:33:01.081Z,12.70
2018-10-17T05:35:36.871Z,12.70
2018-10-17T05:38:12.484Z,12.60
2018-10-17T05:40:48.022Z,12.50
2018-10-17T05:43:23.585Z,12.50
2018-10-17T05:45:58.981Z,12.60
2018-10-17T05:48:34.449Z,12.60
2018-10-17T05:51:09.943Z,12.60
2018-10-17T05:53:45.381Z,12.80
2018-10-17T05:56:20.795Z,12.80
2018-10-17T05:58:56.198Z,12.80
2018-10-17T06:01:31.505Z,12.90
2018-10-17T06:04:07.385Z,12.90
2018-10-17T06:06:42.867Z,13.00
2018-10-17T06:09:18.292Z,13.00
2018-10-17T06:11:53.782Z,13.10
2018-10-17T06:14:29.091Z,13.00
2018-10-17T06:17:04.529Z,13.10
2018-10-17T06:19:39.812Z,13.10
2018-10-17T06:22:15.262Z,13.10
2018-10-17T06:24:51.112Z,13.10
2018-10-17T06:27:26.672Z,13.10
2018-10-17T06:30:02.106Z,13.20
2018-10-17T06:32:37.722Z,13.20
2018-10-17T06:35:13.112Z,13.20
2018-10-17T06:37:48.484Z,13.30
2018-10-17T06:40:24.143Z,13.30
2018-10-17T06:42:59.469Z,13.40
2018-10-17T06:45:34.822Z,13.40
2018-10-17T06:48:10.357Z,13.50
2018-10-17T06:50:45.612Z,13.50
2018-10-17T06:53:20.806Z,13.50
2018-10-17T06:55:56.074Z,13.50
2018-10-17T06:58:31.654Z,13.60
2018-10-17T07:01:07.193Z,13.60
2018-10-17T07:03:42.799Z,13.70
2018-10-17T07:06:18.157Z,13.80
2018-10-17T07:08:53.302Z,13.80
2018-10-17T07:11:28.821Z,13.90
2018-10-17T07:14:05.543Z,14.00
2018-10-17T07:16:40.834Z,14.00
2018-10-17T07:19:16.246Z,14.20
2018-10-17T07:21:51.466Z,14.20
2018-10-17T07:24:26.737Z,14.30
2018-10-17T07:27:02.298Z,14.40
2018-10-17T07:29:37.944Z,14.50
2018-10-17T07:32:13.332Z,14.50
2018-10-17T07:34:48.660Z,14.60
2018-10-17T07:37:24.012Z,14.70
2018-10-17T07:39:59.344Z,14.80
2018-10-17T07:42:34.812Z,14.90
2018-10-17T07:45:10.066Z,15.00
2018-10-17T07:47:45.363Z,15.10
2018-10-17T07:50:20.597Z,15.20
2018-10-17T07:52:55.811Z,15.30
2018-10-17T07:55:31.187Z,15.40
2018-10-17T07:58:06.940Z,15.40
2018-10-17T08:00:42.189Z,15.60
2018-10-17T08:03:17.498Z,15.60
2018-10-17T08:05:52.923Z,15.60
2018-10-17T08:08:28.171Z,15.70
2018-10-17T08:11:03.406Z,15.80
2018-10-17T08:13:38.814Z,15.80
2018-10-17T08:17:17.419Z,15.90
2018-10-17T08:19:52.744Z,16.00
2018-10-17T08:22:27.904Z,16.00
2018-10-17T08:25:03.391Z,16.10
2018-10-17T08:27:38.629Z,16.10
2018-10-17T08:30:13.959Z,16.20
2018-10-17T08:32:49.154Z,16.20
2018-10-17T08:35:24.487Z,16.30
2018-10-17T08:37:59.739Z,16.40
2018-10-17T08:40:34.981Z,16.50
2018-10-17T08:43:10.316Z,16.50
2018-10-17T08:45:45.664Z,16.60
2018-10-17T08:48:21.116Z,16.80
2018-10-17T08:50:56.377Z,16.90
2018-10-17T08:53:31.572Z,17.00
2018-10-17T08:56:06.829Z,17.10
2018-10-17T08:58:41.999Z,17.10
2018-10-17T09:01:17.364Z,17.20
2018-10-17T09:03:52.731Z,17.30
2018-10-17T09:06:27.973Z,17.40
2018-10-17T09:09:03.331Z,17.50
2018-10-17T09:11:38.991Z,17.60
2018-10-17T09:14:14.375Z,17.70
2018-10-17T09:16:49.762Z,17.90
2018-10-17T09:19:25.161Z,18.10
2018-10-17T09:22:00.952Z,18.30
2018-10-17T09:24:36.173Z,18.40
2018-10-17T09:27:11.612Z,18.50
2018-10-17T09:29:47.075Z,18.60
2018-10-17T09:32:22.381Z,18.70
2018-10-17T09:34:57.628Z,18.70
2018-10-17T09:37:33.103Z,18.80
2018-10-17T09:40:09.825Z,19.00
2018-10-17T09:42:45.318Z,19.00
2018-10-17T09:45:20.534Z,19.20
2018-10-17T09:47:55.698Z,19.10
2018-10-17T09:50:30.938Z,19.10
2018-10-17T09:53:06.358Z,19.20
2018-10-17T09:55:41.725Z,19.20
2018-10-17T09:58:17.036Z,19.30
2018-10-17T10:00:57.304Z,19.40
2018-10-17T10:03:32.506Z,19.50
2018-10-17T10:06:07.911Z,19.50
2018-10-17T10:08:43.205Z,19.50
2018-10-17T10:11:18.441Z,19.60
2018-10-17T10:13:53.840Z,19.60
2018-10-17T10:16:29.170Z,19.60
2018-10-17T10:19:04.511Z,19.60
2018-10-17T10:21:39.814Z,19.70
2018-10-17T10:24:15.156Z,19.80
2018-10-17T10:26:50.423Z,19.80
2018-10-17T10:29:25.904Z,19.70
2018-10-17T10:32:01.412Z,19.80
2018-10-17T10:34:36.719Z,19.80
2018-10-17T10:37:11.975Z,19.70
2018-10-17T10:39:47.274Z,19.70
2018-10-17T10:42:22.894Z,19.70
2018-10-17T10:44:58.029Z,19.70
2018-10-17T10:47:33.267Z,19.80
2018-10-17T10:50:09.678Z,19.80
2018-10-17T10:52:44.699Z,19.90
2018-10-17T10:55:19.872Z,19.90
2018-10-17T10:57:55.172Z,20.00
2018-10-17T11:00:30.286Z,20.00
2018-10-17T11:03:06.135Z,20.00
2018-10-17T11:05:41.616Z,20.20
2018-10-17T11:08:16.667Z,20.30
2018-10-17T11:10:51.848Z,20.40
2018-10-17T11:13:27.130Z,20.30
2018-10-17T11:16:02.555Z,20.30
2018-10-17T11:18:37.880Z,20.30
2018-10-17T11:21:13.013Z,20.30
2018-10-17T11:23:48.480Z,20.50
2018-10-17T11:26:23.732Z,20.50
2018-10-17T11:28:59.127Z,20.80
2018-10-17T11:31:34.651Z,21.00
2018-10-17T11:34:09.782Z,21.00
2018-10-17T11:36:44.991Z,21.00
2018-10-17T11:39:20.348Z,21.20
2018-10-17T11:41:55.676Z,21.20
2018-10-17T11:44:31.003Z,21.30
2018-10-17T11:47:06.533Z,21.30
2018-10-17T11:49:41.986Z,21.30
2018-10-17T11:52:17.462Z,21.50
2018-10-17T11:54:52.658Z,21.70
2018-10-17T11:57:28.183Z,21.60
2018-10-17T12:00:03.763Z,21.60
2018-10-17T12:02:39.124Z,21.60
2018-10-17T12:05:15.661Z,21.80
2018-10-17T12:07:50.609Z,21.70
2018-10-17T12:10:26.113Z,21.90
2018-10-17T12:13:01.774Z,21.80
2018-10-17T12:15:41.707Z,21.80
2018-10-17T12:18:17.092Z,21.80
2018-10-17T12:20:52.845Z,21.80
2018-10-17T12:23:28.231Z,21.90
2018-10-17T12:26:03.644Z,21.90
2018-10-17T12:28:39.103Z,21.80
2018-10-17T12:31:14.611Z,21.80
2018-10-17T12:33:50.015Z,22.00
2018-10-17T12:36:25.350Z,22.10
2018-10-17T12:39:00.918Z,22.20
2018-10-17T12:41:36.543Z,22.50
2018-10-17T12:44:12.030Z,23.30
2018-10-17T12:46:47.580Z,24.50
2018-10-17T12:49:23.117Z,25.10
2018-10-17T12:51:58.669Z,25.40
2018-10-17T12:54:34.205Z,25.80
2018-10-17T12:57:09.840Z,25.50
2018-10-17T12:59:45.614Z,25.20
2018-10-17T13:02:21.087Z,25.10
2018-10-17T13:04:56.590Z,24.40
2018-10-17T13:07:31.966Z,23.90
2018-10-17T13:10:08.635Z,23.30
2018-10-17T13:12:43.970Z,23.00
2018-10-17T13:15:21.325Z,22.60
2018-10-17T13:17:57.215Z,22.40
2018-10-17T13:20:32.792Z,22.60
2018-10-17T13:23:08.409Z,22.60
2018-10-17T13:25:43.997Z,22.70
2018-10-17T13:28:19.510Z,22.90
2018-10-17T13:30:54.861Z,23.10
2018-10-17T13:33:30.327Z,23.40
2018-10-17T13:36:05.753Z,23.20
2018-10-17T13:38:41.162Z,23.10
2018-10-17T13:41:16.542Z,23.00
2018-10-17T13:43:52.101Z,23.10
2018-10-17T13:46:27.890Z,23.10
2018-10-17T13:49:03.945Z,22.80
2018-10-17T13:51:39.946Z,22.60
2018-10-17T13:54:15.372Z,22.40
2018-10-17T13:56:51.579Z,22.20
2018-10-17T13:59:28.459Z,22.10
2018-10-17T14:02:03.672Z,21.90
2018-10-17T14:04:38.980Z,21.80
2018-10-17T14:07:14.445Z,21.80
2018-10-17T14:09:49.809Z,21.70
2018-10-17T14:12:26.590Z,21.60
2018-10-17T14:15:02.105Z,21.70
2018-10-17T14:17:37.502Z,21.70
2018-10-17T14:20:13.121Z,21.70
2018-10-17T14:22:48.913Z,21.70
2018-10-17T14:25:24.543Z,21.60
2018-10-17T14:27:59.961Z,21.60
2018-10-17T14:30:35.342Z,21.50
2018-10-17T14:33:10.934Z,21.40
2018-10-17T14:35:46.386Z,21.40
2018-10-17T14:38:22.113Z,21.30
2018-10-17T14:40:57.646Z,21.20
2018-10-17T14:43:32.930Z,21.10
2018-10-17T14:46:08.189Z,21.10
2018-10-17T14:48:43.712Z,20.90
2018-10-17T14:51:19.290Z,20.80
2018-10-17T14:53:54.628Z,20.80
2018-10-17T14:56:30.147Z,20.70
2018-10-17T14:59:05.805Z,20.60
2018-10-17T15:01:41.283Z,20.50
2018-10-17T15:04:17.030Z,20.30
2018-10-17T15:06:52.412Z,20.10
2018-10-17T15:09:28.050Z,20.00
2018-10-17T15:12:03.428Z,19.90
2018-10-17T15:14:38.794Z,19.70
2018-10-17T15:17:14.284Z,19.60
2018-10-17T15:19:49.656Z,19.40
2018-10-17T15:22:25.289Z,19.30
2018-10-17T15:25:01.315Z,19.20
2018-10-17T15:27:36.904Z,19.00
2018-10-17T15:30:12.481Z,18.90
2018-10-17T15:32:47.863Z,18.80
2018-10-17T15:35:23.867Z,18.70
2018-10-17T15:37:59.518Z,18.60
2018-10-17T15:40:34.921Z,18.60
2018-10-17T15:43:10.610Z,18.50
2018-10-17T15:45:45.910Z,18.50
2018-10-17T15:48:21.421Z,18.50
2018-10-17T15:50:57.032Z,18.40
2018-10-17T15:53:32.428Z,18.30
2018-10-17T15:56:08.097Z,18.30
2018-10-17T15:58:43.636Z,18.30
2018-10-17T16:01:19.181Z,18.30
2018-10-17T16:03:54.604Z,18.30
2018-10-17T16:06:30.176Z,18.30
2018-10-17T16:09:09.811Z,18.20
2018-10-17T16:11:45.355Z,18.20
2018-10-17T16:14:20.876Z,18.20
2018-10-17T16:16:56.604Z,18.20
2018-10-17T16:19:32.063Z,18.20
2018-10-17T16:22:07.671Z,18.30
2018-10-17T16:24:43.232Z,18.40
2018-10-17T16:27:18.784Z,18.30
2018-10-17T16:29:54.454Z,18.30
2018-10-17T16:32:29.936Z,18.30
2018-10-17T16:35:06.309Z,18.20
2018-10-17T16:37:41.961Z,18.30
2018-10-17T16:40:17.500Z,18.20
2018-10-17T16:42:53.136Z,18.20
2018-10-17T16:45:28.789Z,18.20
2018-10-17T16:48:04.348Z,18.10
2018-10-17T16:50:40.056Z,18.10
2018-10-17T16:53:15.521Z,18.00
2018-10-17T16:55:51.156Z,18.00
2018-10-17T16:58:26.651Z,17.90
2018-10-17T17:01:02.292Z,17.80
2018-10-17T17:03:37.624Z,17.70
2018-10-17T17:06:13.161Z,17.60
2018-10-17T17:08:48.611Z,17.50
2018-10-17T17:11:24.954Z,17.50
2018-10-17T17:14:06.860Z,17.40
2018-10-17T17:16:42.464Z,17.30
2018-10-17T17:19:18.058Z,17.20
2018-10-17T17:21:53.646Z,17.10
2018-10-17T17:24:29.221Z,17.10
2018-10-17T17:27:05.120Z,17.10
2018-10-17T17:29:40.871Z,17.00
2018-10-17T17:32:16.441Z,16.90
2018-10-17T17:34:51.962Z,16.80
2018-10-17T17:37:27.324Z,16.70
2018-10-17T17:40:02.778Z,16.70
2018-10-17T17:42:38.370Z,16.60
2018-10-17T17:45:13.761Z,16.50
2018-10-17T17:47:49.516Z,16.50
2018-10-17T17:50:25.093Z,16.50
2018-10-17T17:53:00.405Z,16.40
2018-10-17T17:55:35.704Z,16.40
2018-10-17T17:58:11.226Z,16.30
2018-10-17T18:00:46.873Z,16.30
2018-10-17T18:03:22.495Z,16.10
2018-10-17T18:05:58.244Z,16.10
2018-10-17T18:08:33.568Z,16.10
2018-10-17T18:11:19.971Z,16.00
2018-10-17T18:13:56.630Z,16.00
2018-10-17T18:16:32.025Z,16.00
2018-10-17T18:19:07.606Z,15.90
2018-10-17T18:21:43.021Z,15.80
2018-10-17T18:24:18.593Z,15.80
2018-10-17T18:26:54.151Z,15.70
2018-10-17T18:29:29.667Z,15.70
2018-10-17T18:32:05.629Z,15.70
2018-10-17T18:34:41.141Z,15.60
2018-10-17T18:37:16.576Z,15.60
2018-10-17T18:39:52.110Z,15.50
2018-10-17T18:42:27.534Z,15.50
2018-10-17T18:45:03.201Z,15.40
2018-10-17T18:47:38.786Z,15.40
2018-10-17T18:50:14.078Z,15.30
2018-10-17T18:52:49.664Z,15.30
2018-10-17T18:55:24.930Z,15.20
2018-10-17T18:58:00.366Z,15.20
2018-10-17T19:00:36.028Z,15.10
2018-10-17T19:03:11.667Z,15.00
2018-10-17T19:05:46.816Z,14.90
2018-10-17T19:08:22.221Z,14.90
2018-10-17T19:10:57.472Z,14.80
2018-10-17T19:13:32.891Z,14.80
2018-10-17T19:16:08.755Z,14.80
2018-10-17T19:18:44.244Z,14.80
2018-10-17T19:21:19.907Z,14.80
2018-10-17T19:23:55.364Z,14.80
2018-10-17T19:26:30.891Z,14.80
2018-10-17T19:29:06.362Z,14.80
2018-10-17T19:31:41.994Z,14.70
2018-10-17T19:34:17.284Z,14.70
2018-10-17T19:36:52.514Z,14.60
2018-10-17T19:39:27.874Z,14.60
2018-10-17T19:42:03.406Z,14.50
2018-10-17T19:44:38.791Z,14.60
2018-10-17T19:47:14.308Z,14.60
2018-10-17T19:49:49.864Z,14.50
2018-10-17T19:52:25.283Z,14.50
2018-10-17T19:55:00.818Z,14.50
2018-10-17T19:57:35.993Z,14.50
2018-10-17T20:00:13.415Z,14.40
2018-10-17T20:02:48.771Z,14.40
2018-10-17T20:05:24.267Z,14.40
2018-10-17T20:07:59.883Z,14.30
2018-10-17T20:10:35.643Z,14.30
2018-10-17T20:13:11.187Z,14.20
2018-10-17T20:15:46.718Z,14.30
2018-10-17T20:18:22.110Z,14.20
2018-10-17T20:20:57.541Z,14.20
2018-10-17T20:23:33.301Z,14.20
2018-10-17T20:26:08.814Z,14.20
2018-10-17T20:28:44.180Z,14.20
2018-10-17T20:31:19.736Z,14.10
2018-10-17T20:33:55.184Z,14.20
2018-10-17T20:36:30.745Z,14.20
2018-10-17T20:39:11.011Z,14.20
2018-10-17T20:41:48.772Z,14.20
2018-10-17T20:44:24.365Z,14.30
2018-10-17T20:46:59.762Z,14.30
2018-10-17T20:49:35.223Z,14.30
2018-10-17T20:52:10.844Z,14.30
2018-10-17T20:54:48.061Z,14.30
2018-10-17T20:57:23.577Z,14.30
2018-10-17T20:59:59.173Z,14.30
2018-10-17T21:02:34.841Z,14.30
2018-10-17T21:05:10.564Z,14.30
2018-10-17T21:07:46.225Z,14.30
2018-10-17T21:10:21.775Z,14.30
2018-10-17T21:12:57.414Z,14.30
2018-10-17T21:15:33.216Z,14.30
2018-10-17T21:18:08.770Z,14.40
2018-10-17T21:20:44.041Z,14.40
2018-10-17T21:23:19.625Z,14.40
2018-10-17T21:25:54.990Z,14.40
2018-10-17T21:28:30.302Z,14.40
2018-10-17T21:31:05.960Z,14.40
2018-10-17T21:33:41.505Z,14.40
2018-10-17T21:36:17.021Z,14.40
2018-10-17T21:38:52.462Z,14.40
2018-10-17T21:41:28.175Z,14.40
2018-10-17T21:44:03.947Z,14.40
2018-10-17T21:46:39.721Z,14.30
2018-10-17T21:49:15.081Z,14.30
2018-10-17T21:51:50.625Z,14.30
2018-10-17T21:54:26.142Z,14.30
2018-10-17T21:57:01.596Z,14.30
2018-10-17T21:59:36.974Z,14.20
2018-10-17T22:02:12.469Z,14.10
2018-10-17T22:04:47.985Z,14.10
2018-10-17T22:07:23.381Z,14.00
2018-10-17T22:09:58.919Z,14.00
2018-10-17T22:12:34.365Z,13.90
2018-10-17T22:15:10.412Z,13.80
2018-10-17T22:17:46.135Z,13.80
2018-10-17T22:20:21.665Z,13.80
2018-10-17T22:22:57.084Z,13.70
2018-10-17T22:25:32.744Z,13.70
2018-10-17T22:28:08.194Z,13.60
2018-10-17T22:30:43.732Z,13.50
2018-10-17T22:33:19.365Z,13.50
2018-10-17T22:35:57.901Z,13.50
2018-10-17T22:38:33.413Z,13.40
2018-10-17T22:41:08.873Z,13.40
2018-10-17T22:43:44.282Z,13.40
2018-10-17T22:46:19.872Z,13.30
2018-10-17T22:48:55.455Z,13.20
2018-10-17T22:51:30.921Z,13.20
2018-10-17T22:54:06.706Z,13.20
2018-10-17T22:56:42.034Z,13.10
2018-10-17T22:59:17.442Z,13.00
2018-10-17T23:01:52.966Z,13.00
2018-10-17T23:04:28.504Z,12.90
2018-10-17T23:07:04.069Z,12.90
2018-10-17T23:09:39.566Z,12.80
2018-10-17T23:12:15.147Z,12.70
2018-10-17T23:14:50.516Z,12.60
2018-10-17T23:17:26.242Z,12.50
2018-10-17T23:20:01.781Z,12.40
2018-10-17T23:22:37.323Z,12.40
2018-10-17T23:25:12.822Z,12.30
2018-10-17T23:27:48.723Z,12.20
2018-10-17T23:30:24.053Z,12.20
2018-10-17T23:35:58.555Z,12.10
2018-10-17T23:38:33.955Z,12.00
2018-10-17T23:41:09.525Z,12.00
2018-10-17T23:43:44.982Z,12.00
2018-10-17T23:46:20.342Z,12.00
2018-10-17T23:48:55.765Z,11.90
2018-10-17T23:51:31.205Z,11.80
2018-10-17T23:54:06.829Z,11.70
2018-10-17T23:56:42.392Z,11.70
2018-10-17T23:59:17.855Z,11.60
